Time;durP1;ratioP1;P1;durP2;ratioP2;P2;SDS_P1;SDS_P2;PMS_P1;PMS_P2;Temp;Humidity;BMP_temperature;BMP_pressure;BME280_temperature;BME280_humidity;BME280_pressure;Samples;Min_cycle;Max_cycle;Signal;HPM_P1;HPM_P2
2022/06/17 00:02:24;;;;;;;5.13;2.92;;;18.90;68.90;;;;;;5051601;28;20043;-54
2022/06/17 00:05:09;;;;;;;5.55;3.55;;;19.00;68.70;;;;;;5051145;28;20083;-51
2022/06/17 00:07:53;;;;;;;;;;;19.10;68.90;;;;;;5049677;28;20111;-52
2022/06/17 00:10:38;;;;;;;5.70;2.80;;;19.20;68.90;;;;;;5048976;28;19919;-49
2022/06/17 00:13:24;;;;;;;7.95;2.95;;;19.20;68.80;;;;;;5051921;28;20036;-49
2022/06/17 00:16:14;;;;;;;4.15;2.83;;;19.10;68.80;;;;;;5050755;28;20071;-51
2022/06/17 00:18:58;;;;;;;5.53;2.80;;;19.20;68.80;;;;;;5051649;28;20549;-53
2022/06/17 00:21:45;;;;;;;7.57;3.17;;;19.30;68.80;;;;;;5051262;28;20071;-50
2022/06/17 00:24:34;;;;;;;5.95;3.03;;;19.30;69.00;;;;;;5051401;28;20035;-49
2022/06/17 00:27:18;;;;;;;3.58;2.85;;;19.20;69.10;;;;;;5034321;28;20489;-54
2022/06/17 00:30:05;;;;;;;3.30;3.00;;;19.30;68.90;;;;;;5046561;28;20145;-52
2022/06/17 00:33:02;;;;;;;4.18;3.00;;;19.10;70.20;;;;;;5035839;28;20179;-51
2022/06/17 00:35:50;;;;;;;5.10;2.85;;;18.80;70.30;;;;;;5051838;28;20531;-49
2022/06/17 00:38:36;;;;;;;5.00;2.90;;;18.30;71.10;;;;;;5046647;28;20082;-48
2022/06/17 00:41:29;;;;;;;5.53;3.67;;;18.10;72.00;;;;;;5019261;28;20036;-52
2022/06/17 00:44:37;;;;;;;5.25;2.88;;;18.10;72.00;;;;;;5051139;28;20039;-53
2022/06/17 00:47:33;;;;;;;7.72;3.13;;;18.20;71.50;;;;;;5050531;28;20082;-56
2022/06/17 00:50:39;;;;;;;5.72;3.03;;;18.10;72.00;;;;;;5050916;28;20040;-51
2022/06/17 00:53:31;;;;;;;3.25;2.90;;;18.10;72.20;;;;;;5050783;28;20523;-51
2022/06/17 00:56:23;;;;;;;5.65;4.10;;;18.10;72.10;;;;;;5050726;28;20567;-52
2022/06/17 00:59:10;;;;;;;6.30;3.38;;;18.10;72.10;;;;;;5050984;28;20028;-50
2022/06/17 01:02:02;;;;;;;6.63;2.97;;;18.10;72.60;;;;;;5051601;28;20040;-49
2022/06/17 01:04:49;;;;;;;3.67;2.85;;;18.00;72.50;;;;;;5051250;28;20074;-53
2022/06/17 01:07:38;;;;;;;6.38;3.60;;;18.00;72.20;;;;;;5049529;28;20060;-50
2022/06/17 01:10:23;;;;;;;7.60;4.30;;;18.10;72.90;;;;;;5051097;28;20107;-51
2022/06/17 01:13:09;;;;;;;5.30;2.95;;;18.20;73.00;;;;;;5050750;28;20036;-49
2022/06/17 01:15:53;;;;;;;6.32;3.65;;;18.20;72.60;;;;;;5051081;28;20094;-49
2022/06/17 01:18:42;;;;;;;5.97;3.05;;;18.20;72.40;;;;;;5050895;28;20070;-55
2022/06/17 01:21:38;;;;;;;5.55;3.00;;;18.10;73.20;;;;;;5051005;28;20067;-52
2022/06/17 01:24:24;;;;;;;6.25;3.20;;;18.20;72.90;;;;;;5040004;28;20064;-51
2022/06/17 01:27:08;;;;;;;5.95;3.00;;;18.00;73.60;;;;;;5050007;28;20542;-49
2022/06/17 01:29:53;;;;;;;5.60;3.08;;;17.80;74.30;;;;;;5030960;28;20044;-51
2022/06/17 01:33:03;;;;;;;6.28;3.45;;;17.70;74.70;;;;;;5048886;28;20651;-53
2022/06/17 01:35:59;;;;;;;5.65;3.40;;;17.60;75.00;;;;;;5049852;28;20035;-50
2022/06/17 01:38:48;;;;;;;4.95;3.47;;;17.50;74.90;;;;;;5049848;28;20527;-51
2022/06/17 01:41:34;;;;;;;4.85;3.40;;;17.60;75.10;;;;;;5050229;28;20395;-51
2022/06/17 01:44:23;;;;;;;5.55;3.42;;;17.60;74.80;;;;;;5049659;28;20043;-56
2022/06/17 01:47:14;;;;;;;4.93;3.67;;;17.70;74.90;;;;;;5049877;28;20052;-51
2022/06/17 01:50:03;;;;;;;7.30;5.07;;;17.70;75.10;;;;;;5050192;28;20036;-54
2022/06/17 01:53:00;;;;;;;6.07;4.80;;;17.70;74.90;;;;;;5050183;28;20083;-50
2022/06/17 01:55:54;;;;;;;4.72;3.28;;;17.70;74.90;;;;;;5049714;28;20392;-53
2022/06/17 01:58:59;;;;;;;7.43;3.65;;;17.50;75.10;;;;;;5036690;28;20067;-56
2022/06/17 02:01:48;;;;;;;6.72;3.63;;;17.40;75.70;;;;;;5049511;28;20409;-52
2022/06/17 02:04:36;;;;;;;6.20;3.45;;;17.00;77.20;;;;;;5050166;28;20044;-47
2022/06/17 02:07:27;;;;;;;5.13;3.65;;;17.00;77.20;;;;;;5048906;28;20048;-53
2022/06/17 02:10:11;;;;;;;5.60;3.92;;;17.00;76.90;;;;;;5048666;28;20048;-52
2022/06/17 02:12:56;;;;;;;10.43;7.53;;;17.00;77.00;;;;;;5049956;28;20074;-53
2022/06/17 02:15:42;;;;;;;5.35;3.90;;;17.10;77.00;;;;;;5048881;28;20098;-50
2022/06/17 02:18:27;;;;;;;6.95;4.85;;;17.10;77.80;;;;;;5050766;28;20102;-51
2022/06/17 02:21:18;;;;;;;5.90;4.22;;;17.10;77.50;;;;;;5053712;28;20048;-54
2022/06/17 02:24:06;;;;;;;6.18;4.50;;;17.10;77.70;;;;;;5052752;28;20454;-54
2022/06/17 02:26:52;;;;;;;7.55;4.20;;;17.10;77.80;;;;;;5052512;28;20048;-54
2022/06/17 02:29:39;;;;;;;5.68;4.55;;;17.20;77.20;;;;;;5053640;28;20086;-53
2022/06/17 02:32:24;;;;;;;7.22;4.55;;;17.20;77.50;;;;;;5053293;28;20117;-51
2022/06/17 02:35:25;;;;;;;11.93;9.50;;;17.20;77.50;;;;;;5051725;28;20040;-52
2022/06/17 02:38:16;;;;;;;10.63;6.45;;;17.20;77.90;;;;;;5053092;28;20032;-52
2022/06/17 02:41:06;;;;;;;6.68;5.50;;;17.30;77.80;;;;;;5053659;28;20056;-55
2022/06/17 02:44:03;;;;;;;6.45;4.68;;;17.30;78.10;;;;;;5053216;28;20128;-60
2022/06/17 02:46:50;;;;;;;7.00;5.13;;;17.20;77.70;;;;;;5053314;28;20032;-53
2022/06/17 02:49:36;;;;;;;6.65;4.80;;;17.20;77.70;;;;;;5019583;28;20045;-52
2022/06/17 02:52:30;;;;;;;4.72;3.67;;;17.00;78.30;;;;;;5040012;28;20164;-54
2022/06/17 02:55:26;;;;;;;7.50;4.35;;;16.90;78.50;;;;;;5053586;28;20552;-51
2022/06/17 02:58:29;;;;;;;7.20;4.32;;;16.70;80.00;;;;;;5053948;28;20100;-55
2022/06/17 03:01:18;;;;;;;6.70;3.65;;;16.70;80.30;;;;;;5053389;28;20563;-49
2022/06/17 03:04:12;;;;;;;7.30;4.75;;;16.70;80.00;;;;;;5033597;28;20108;-50
2022/06/17 03:06:56;;;;;;;7.57;4.30;;;16.60;81.10;;;;;;5035739;28;20550;-49
2022/06/17 03:09:41;;;;;;;7.63;4.65;;;16.60;80.70;;;;;;5053609;28;20385;-49
2022/06/17 03:12:28;;;;;;;7.68;3.83;;;16.70;80.80;;;;;;5053478;28;20071;-54
2022/06/17 03:15:15;;;;;;;6.63;4.25;;;16.80;80.50;;;;;;5052572;28;20415;-50
2022/06/17 03:17:59;;;;;;;7.40;3.88;;;16.80;80.40;;;;;;5052953;28;20396;-53
2022/06/17 03:20:47;;;;;;;9.68;5.03;;;16.70;80.60;;;;;;5053105;28;20052;-52
2022/06/17 03:23:52;;;;;;;5.72;4.38;;;16.80;80.10;;;;;;5053829;28;20051;-50
2022/06/17 03:26:41;;;;;;;5.68;4.68;;;17.00;79.60;;;;;;5052180;28;20063;-54
2022/06/17 03:29:27;;;;;;;6.50;4.43;;;17.00;79.60;;;;;;5018331;28;20044;-50
2022/06/17 03:32:21;;;;;;;4.93;4.00;;;17.10;79.70;;;;;;5051673;28;20055;-57
2022/06/17 03:35:06;;;;;;;5.47;3.70;;;17.10;79.90;;;;;;5052565;28;20631;-51
2022/06/17 03:37:58;;;;;;;5.65;4.35;;;17.10;80.30;;;;;;5036505;28;20503;-56
2022/06/17 03:40:47;;;;;;;8.50;4.20;;;17.20;79.90;;;;;;5036682;28;20558;-56
2022/06/17 03:43:42;;;;;;;9.43;4.65;;;17.10;80.00;;;;;;5052494;28;20112;-56
2022/06/17 03:46:32;;;;;;;5.88;4.22;;;17.00;80.20;;;;;;5052267;28;20039;-55
2022/06/17 03:49:21;;;;;;;8.20;4.15;;;17.00;80.80;;;;;;5052457;28;20036;-56
2022/06/17 03:52:26;;;;;;;9.00;4.55;;;17.10;80.90;;;;;;5051803;28;20073;-56
2022/06/17 03:55:15;;;;;;;;;;;17.10;80.90;;;;;;5043673;28;20031;-52
2022/06/17 03:58:01;;;;;;;6.38;4.07;;;17.10;81.40;;;;;;5051778;28;20267;-53
2022/06/17 04:01:44;;;;;;;5.03;4.00;;;17.00;81.50;;;;;;5052522;28;20028;-54
2022/06/17 04:04:34;;;;;;;6.63;4.65;;;17.10;80.10;;;;;;4990525;28;20109;-53
2022/06/17 04:07:19;;;;;;;5.25;4.35;;;17.00;81.00;;;;;;4991015;28;20034;-52
2022/06/17 04:10:04;;;;;;;6.97;5.47;;;17.00;81.30;;;;;;5052573;28;20075;-52
2022/06/17 04:12:51;;;;;;;6.07;4.85;;;17.10;81.30;;;;;;5052559;28;20055;-54
2022/06/17 04:16:13;;;;;;;8.63;4.60;;;17.00;81.60;;;;;;5051682;28;20116;-51
2022/06/17 04:19:16;;;;;;;8.75;4.78;;;17.10;81.70;;;;;;5052165;28;20028;-53
2022/06/17 04:22:13;;;;;;;6.40;3.95;;;17.20;81.10;;;;;;5031811;28;20064;-52
2022/06/17 04:25:05;;;;;;;7.35;4.13;;;17.00;81.30;;;;;;5049343;28;20043;-49
2022/06/17 04:27:57;;;;;;;6.43;3.90;;;17.00;81.10;;;;;;5031632;28;20036;-55
2022/06/17 04:30:44;;;;;;;7.65;4.43;;;17.10;81.30;;;;;;5034705;28;20035;-53
2022/06/17 04:33:36;;;;;;;6.45;4.50;;;16.90;80.50;;;;;;5051573;28;20032;-56
2022/06/17 04:36:39;;;;;;;7.28;4.25;;;16.80;80.90;;;;;;5050847;28;20068;-51
2022/06/17 04:39:35;;;;;;;9.35;4.63;;;16.80;81.70;;;;;;5051288;28;20028;-53
2022/06/17 04:42:30;;;;;;;5.72;4.40;;;16.90;81.10;;;;;;5050470;28;20059;-54
2022/06/17 04:45:26;;;;;;;6.05;3.83;;;17.00;81.20;;;;;;5050469;28;20043;-53
2022/06/17 04:48:11;;;;;;;5.63;3.60;;;17.00;80.80;;;;;;5051360;28;20074;-51
2022/06/17 04:50:55;;;;;;;6.65;4.60;;;17.00;80.90;;;;;;5051011;28;20107;-55
2022/06/17 04:53:42;;;;;;;;;;;17.10;80.40;;;;;;5051326;28;20472;-56
2022/06/17 04:56:31;;;;;;;7.05;4.32;;;17.10;80.30;;;;;;5050640;28;19978;-54
2022/06/17 04:59:28;;;;;;;8.10;4.45;;;17.10;80.40;;;;;;5052085;28;20032;-56
2022/06/17 05:02:19;;;;;;;5.57;4.00;;;17.20;80.10;;;;;;5051678;28;20163;-52
2022/06/17 05:05:08;;;;;;;6.53;3.70;;;17.30;79.70;;;;;;5051089;28;20051;-55
2022/06/17 05:07:54;;;;;;;8.80;3.83;;;17.30;79.50;;;;;;5031999;28;20444;-52
2022/06/17 05:10:43;;;;;;;5.22;3.65;;;17.20;80.00;;;;;;5035219;28;20036;-57
2022/06/17 05:13:51;;;;;;;5.57;3.92;;;17.10;79.20;;;;;;5031677;28;20527;-52
2022/06/17 05:16:35;;;;;;;4.90;3.83;;;17.10;79.40;;;;;;5041277;28;20028;-56
2022/06/17 05:19:21;;;;;;;6.10;3.80;;;17.00;79.40;;;;;;5050988;28;20047;-53
2022/06/17 05:22:15;;;;;;;10.70;4.20;;;17.10;78.90;;;;;;5050500;28;20036;-53
2022/06/17 05:25:02;;;;;;;6.40;4.25;;;17.10;79.10;;;;;;5050772;28;20104;-54
2022/06/17 05:27:46;;;;;;;6.68;3.63;;;17.10;79.10;;;;;;5050668;28;20063;-51
2022/06/17 05:30:35;;;;;;;10.25;4.35;;;17.20;79.00;;;;;;5050602;28;20468;-56
2022/06/17 05:33:21;;;;;;;7.72;3.45;;;17.40;78.60;;;;;;5051263;28;20041;-53
2022/06/17 05:36:06;;;;;;;7.50;3.78;;;17.40;78.80;;;;;;5050703;28;20036;-53
2022/06/17 05:38:50;;;;;;;5.88;3.53;;;17.50;78.90;;;;;;5051755;28;20078;-53
2022/06/17 05:41:34;;;;;;;7.30;3.73;;;17.60;78.50;;;;;;5050530;28;20507;-57
2022/06/17 05:44:19;;;;;;;7.88;4.13;;;17.70;78.10;;;;;;5050718;28;20543;-53
2022/06/17 05:47:03;;;;;;;7.55;4.40;;;17.80;77.10;;;;;;5050257;28;20071;-54
2022/06/17 05:49:49;;;;;;;7.63;3.42;;;17.50;77.70;;;;;;5050805;28;20040;-51
2022/06/17 05:52:33;;;;;;;8.13;4.07;;;17.70;77.40;;;;;;5051041;28;20071;-54
2022/06/17 05:55:18;;;;;;;5.22;3.60;;;17.60;77.50;;;;;;5039075;28;20061;-56
2022/06/17 05:58:04;;;;;;;4.72;3.85;;;17.70;77.40;;;;;;5039873;28;20040;-52
2022/06/17 06:00:49;;;;;;;5.32;3.67;;;18.00;76.60;;;;;;5054624;28;20032;-53
2022/06/17 06:03:33;;;;;;;7.22;3.90;;;18.20;76.40;;;;;;5053982;28;20063;-57
2022/06/17 06:06:17;;;;;;;6.30;3.78;;;18.10;76.40;;;;;;5053698;28;20036;-56
2022/06/17 06:09:02;;;;;;;9.40;3.60;;;18.10;76.80;;;;;;5054473;28;20035;-56
2022/06/17 06:11:46;;;;;;;;;;;18.10;76.80;;;;;;5054309;28;20071;-57
2022/06/17 06:14:30;;;;;;;6.55;4.00;;;18.30;76.40;;;;;;5054430;28;19932;-55
2022/06/17 06:17:14;;;;;;;9.35;3.95;;;18.30;76.40;;;;;;5053986;28;20044;-54
2022/06/17 06:19:59;;;;;;;9.05;4.35;;;18.30;76.30;;;;;;5054721;28;20052;-53
2022/06/17 06:22:43;;;;;;;7.22;3.88;;;18.20;76.40;;;;;;5035015;28;20044;-54
2022/06/17 06:25:27;;;;;;;5.13;4.07;;;18.20;76.10;;;;;;5053064;28;20103;-53
2022/06/17 06:28:23;;;;;;;7.03;3.75;;;18.30;76.00;;;;;;5053943;28;20079;-56
2022/06/17 06:31:24;;;;;;;7.78;4.13;;;18.20;77.10;;;;;;5053454;28;20091;-53
2022/06/17 06:34:10;;;;;;;8.05;4.18;;;18.50;76.30;;;;;;5053490;28;20028;-54
2022/06/17 06:36:54;;;;;;;7.20;4.47;;;18.60;75.40;;;;;;5052862;28;20492;-51
2022/06/17 06:39:39;;;;;;;6.43;3.83;;;18.70;75.50;;;;;;5034190;28;20083;-54
2022/06/17 06:42:24;;;;;;;8.48;4.20;;;18.80;74.90;;;;;;5042014;28;20090;-54
2022/06/17 06:45:16;;;;;;;6.32;3.78;;;18.90;74.60;;;;;;5037809;28;20040;-54
2022/06/17 06:48:03;;;;;;;7.82;3.90;;;19.00;74.90;;;;;;5053121;28;20143;-55
2022/06/17 06:50:48;;;;;;;6.95;4.28;;;19.20;74.40;;;;;;5054092;28;20044;-51
2022/06/17 06:53:33;;;;;;;8.18;3.70;;;19.20;74.30;;;;;;5039095;28;20500;-52
2022/06/17 06:56:17;;;;;;;8.10;3.88;;;19.40;73.80;;;;;;5053448;28;20115;-55
2022/06/17 06:59:01;;;;;;;;;;;19.50;73.60;;;;;;5054454;28;20447;-53
2022/06/17 07:01:46;;;;;;;7.68;4.25;;;19.40;73.90;;;;;;5053498;28;20444;-54
2022/06/17 07:04:32;;;;;;;5.18;3.67;;;19.50;73.80;;;;;;5053858;28;20558;-54
2022/06/17 07:07:16;;;;;;;5.97;4.18;;;19.50;73.60;;;;;;5051956;28;20040;-53
2022/06/17 07:10:01;;;;;;;5.75;3.60;;;19.50;73.80;;;;;;5053173;28;20068;-55
2022/06/17 07:12:44;;;;;;;9.07;4.28;;;19.80;73.70;;;;;;5052432;28;20174;-52
2022/06/17 07:15:29;;;;;;;5.30;3.72;;;19.70;74.40;;;;;;5052736;28;20118;-57
2022/06/17 07:18:15;;;;;;;;;;;19.80;73.60;;;;;;5054537;28;20067;-55
2022/06/17 07:21:02;;;;;;;5.47;3.60;;;19.80;72.00;;;;;;5053644;28;19920;-51
2022/06/17 07:23:47;;;;;;;4.60;3.33;;;19.90;72.50;;;;;;5052467;28;20442;-52
2022/06/17 07:26:31;;;;;;;6.22;3.58;;;19.90;72.10;;;;;;5052583;28;20036;-56
2022/06/17 07:29:15;;;;;;;9.05;4.07;;;20.10;72.20;;;;;;5033806;28;20091;-54
2022/06/17 07:32:00;;;;;;;12.00;4.90;;;20.10;71.80;;;;;;5037775;28;20514;-54
2022/06/17 07:34:44;;;;;;;28.35;7.07;;;20.30;71.50;;;;;;5053666;28;20048;-55
2022/06/17 07:40:32;;;;;;;6.28;3.85;;;20.60;71.70;;;;;;5053504;28;20040;-55
2022/06/17 07:43:18;;;;;;;57.25;10.07;;;20.60;70.30;;;;;;5053622;28;20132;-53
2022/06/17 07:46:04;;;;;;;195.18;32.25;;;20.70;70.30;;;;;;5054337;28;20035;-52
2022/06/17 07:48:48;;;;;;;13.70;5.55;;;20.60;70.60;;;;;;5037511;28;20167;-52
2022/06/17 07:51:32;;;;;;;8.80;3.60;;;20.70;69.40;;;;;;5051652;28;20181;-52
2022/06/17 07:54:17;;;;;;;7.68;3.92;;;20.80;69.10;;;;;;5052424;28;20107;-51
2022/06/17 07:57:01;;;;;;;7.70;4.25;;;20.50;69.60;;;;;;5050444;28;20040;-52
2022/06/17 07:59:46;;;;;;;16.08;5.10;;;20.60;69.80;;;;;;5052572;28;20435;-54
2022/06/17 08:02:30;;;;;;;16.90;4.63;;;20.80;68.90;;;;;;5052009;28;20078;-54
2022/06/17 08:05:15;;;;;;;101.88;17.25;;;20.80;69.20;;;;;;5044027;28;20104;-53
2022/06/17 08:08:03;;;;;;;11.60;4.60;;;20.70;68.50;;;;;;5050972;28;20039;-49
2022/06/17 08:10:50;;;;;;;12.93;4.82;;;20.60;69.60;;;;;;5048287;28;20655;-55
2022/06/17 08:13:35;;;;;;;179.80;28.50;;;20.70;69.80;;;;;;5050075;28;20028;-51
2022/06/17 08:16:19;;;;;;;;;;;20.80;68.70;;;;;;5049789;28;20039;-55
2022/06/17 08:19:07;;;;;;;252.15;43.13;;;20.80;67.90;;;;;;5035568;28;19962;-56
2022/06/17 08:21:54;;;;;;;8.38;4.15;;;20.70;67.90;;;;;;5049196;28;20408;-56
2022/06/17 08:24:38;;;;;;;10.70;3.63;;;20.80;67.60;;;;;;5034832;28;20036;-53
2022/06/17 08:27:23;;;;;;;28.20;6.25;;;20.80;68.20;;;;;;5050238;28;20454;-53
2022/06/17 08:30:07;;;;;;;39.80;7.57;;;20.90;68.20;;;;;;5051260;28;20093;-53
2022/06/17 08:32:53;;;;;;;17.30;4.88;;;21.10;67.00;;;;;;5051382;28;20098;-56
2022/06/17 08:35:42;;;;;;;10.77;3.60;;;21.20;67.10;;;;;;5051968;28;20036;-56
2022/06/17 08:38:31;;;;;;;8.57;3.83;;;21.20;66.40;;;;;;5053080;28;20090;-58
2022/06/17 08:41:33;;;;;;;35.10;6.80;;;21.40;67.10;;;;;;5052390;28;20028;-54
2022/06/17 08:44:34;;;;;;;20.02;4.93;;;21.50;65.20;;;;;;5052258;28;20048;-55
2022/06/17 08:47:29;;;;;;;122.88;19.55;;;21.60;65.70;;;;;;5038057;28;20047;-57
2022/06/17 08:50:37;;;;;;;95.13;15.02;;;21.60;65.80;;;;;;5049508;28;20078;-57
2022/06/17 08:54:09;;;;;;;151.90;24.27;;;21.70;65.50;;;;;;5051425;28;20095;-56
2022/06/17 08:57:11;;;;;;;83.65;15.93;;;21.60;65.20;;;;;;5048701;28;20561;-56
2022/06/17 08:59:58;;;;;;;6.55;4.00;;;21.70;65.10;;;;;;5046164;28;20078;-55
2022/06/17 09:02:49;;;;;;;11.73;5.00;;;22.00;64.00;;;;;;5048690;28;20063;-55
2022/06/17 09:05:54;;;;;;;8.35;3.78;;;22.00;64.30;;;;;;5049456;28;20134;-57
2022/06/17 09:09:09;;;;;;;24.08;5.47;;;21.90;64.40;;;;;;5051162;28;20036;-53
2022/06/17 09:12:01;;;;;;;221.07;41.67;;;22.10;63.70;;;;;;5047020;28;20442;-54
2022/06/17 09:14:55;;;;;;;121.35;21.27;;;22.10;63.40;;;;;;5051171;28;20044;-52
2022/06/17 09:17:50;;;;;;;119.88;20.55;;;22.10;62.90;;;;;;5050950;28;20044;-53
2022/06/17 09:20:40;;;;;;;44.55;8.88;;;22.20;62.70;;;;;;5048596;28;20039;-53
2022/06/17 09:23:28;;;;;;;26.60;5.70;;;22.30;61.90;;;;;;5050965;28;20682;-51
2022/06/17 09:26:59;;;;;;;86.13;14.68;;;22.50;61.90;;;;;;5040022;28;20083;-55
2022/06/17 09:29:55;;;;;;;21.55;5.47;;;22.70;62.30;;;;;;5033147;28;20059;-56
2022/06/17 09:32:44;;;;;;;48.20;8.68;;;22.70;62.00;;;;;;5045514;28;20040;-54
2022/06/17 09:35:48;;;;;;;9.70;4.78;;;22.90;61.20;;;;;;5055418;28;20039;-50
2022/06/17 09:38:41;;;;;;;28.27;5.40;;;23.00;62.00;;;;;;5054431;28;20063;-54
2022/06/17 09:41:43;;;;;;;36.53;7.32;;;23.00;60.90;;;;;;5054812;28;20032;-51
2022/06/17 09:44:48;;;;;;;12.23;4.18;;;22.90;61.20;;;;;;5055383;28;20132;-53
2022/06/17 09:47:40;;;;;;;4.63;3.22;;;22.90;60.30;;;;;;5052630;28;20060;-55
2022/06/17 09:50:29;;;;;;;6.00;3.75;;;22.90;60.40;;;;;;5048073;28;20044;-53
2022/06/17 09:53:23;;;;;;;58.72;10.35;;;23.10;60.30;;;;;;5036086;28;20636;-53
2022/06/17 09:56:15;;;;;;;65.72;10.23;;;23.40;60.40;;;;;;5036237;28;20033;-50
2022/06/17 09:59:34;;;;;;;11.85;4.03;;;23.50;61.00;;;;;;5042352;28;20115;-49
2022/06/17 10:02:23;;;;;;;6.85;3.70;;;23.70;60.50;;;;;;5053289;28;20098;-58
2022/06/17 10:05:31;;;;;;;11.52;3.88;;;23.80;59.70;;;;;;5053938;28;20047;-51
2022/06/17 10:08:41;;;;;;;8.07;3.70;;;24.00;59.70;;;;;;5054294;28;20051;-51
2022/06/17 10:11:45;;;;;;;11.60;3.60;;;24.20;58.90;;;;;;5054404;28;20515;-53
2022/06/17 10:14:52;;;;;;;49.65;11.10;;;24.20;58.10;;;;;;5054569;28;20503;-50
2022/06/17 10:20:42;;;;;;;60.83;13.40;;;23.80;57.90;;;;;;5054228;28;20090;-52
2022/06/17 10:23:58;;;;;;;43.85;9.27;;;23.60;58.10;;;;;;5054016;28;20040;-54
2022/06/17 10:27:08;;;;;;;19.23;5.75;;;23.70;57.80;;;;;;5053915;28;20067;-50
2022/06/17 10:30:08;;;;;;;13.18;4.90;;;23.70;58.00;;;;;;5056170;28;20503;-55
2022/06/17 10:32:54;;;;;;;9.82;3.10;;;24.00;57.30;;;;;;5054384;28;20116;-55
2022/06/17 10:35:39;;;;;;;50.42;10.45;;;24.00;57.10;;;;;;5054507;28;20156;-54
2022/06/17 10:38:29;;;;;;;5.07;3.00;;;23.80;57.50;;;;;;5050535;28;20036;-56
2022/06/17 10:41:16;;;;;;;14.30;3.38;;;23.70;58.40;;;;;;5055909;28;20097;-56
2022/06/17 10:44:01;;;;;;;48.75;10.88;;;23.90;57.80;;;;;;5052387;28;20555;-56
2022/06/17 10:46:58;;;;;;;206.75;35.00;;;23.80;57.00;;;;;;5057063;28;20091;-59
2022/06/17 10:49:49;;;;;;;45.80;9.40;;;23.90;57.30;;;;;;5055507;28;20090;-54
2022/06/17 10:52:38;;;;;;;37.97;8.10;;;23.90;57.20;;;;;;5054441;28;20094;-52
2022/06/17 10:55:45;;;;;;;6.28;3.45;;;24.10;57.20;;;;;;5056250;28;20036;-58
2022/06/17 10:58:33;;;;;;;23.45;5.85;;;24.30;56.80;;;;;;5054703;28;20159;-50
2022/06/17 11:01:17;;;;;;;39.08;6.43;;;24.60;56.60;;;;;;5037183;28;20068;-58
2022/06/17 11:04:33;;;;;;;10.95;4.40;;;24.70;55.90;;;;;;5039019;28;20036;-56
2022/06/17 11:07:28;;;;;;;133.75;20.27;;;25.00;55.50;;;;;;5038553;28;20036;-51
2022/06/17 11:10:12;;;;;;;31.48;6.97;;;24.90;55.30;;;;;;5053850;28;20087;-55
2022/06/17 11:13:03;;;;;;;15.00;4.13;;;24.60;55.90;;;;;;5052537;28;20086;-54
2022/06/17 11:15:56;;;;;;;6.38;3.15;;;24.70;56.20;;;;;;5053340;28;20455;-52
2022/06/17 11:18:43;;;;;;;150.40;22.42;;;24.80;55.50;;;;;;5053160;28;20024;-54
2022/06/17 11:21:41;;;;;;;85.25;13.90;;;24.80;55.40;;;;;;5053821;28;20530;-53
2022/06/17 11:24:31;;;;;;;35.67;8.18;;;24.80;55.80;;;;;;5046766;28;20071;-57
2022/06/17 11:27:20;;;;;;;85.15;13.18;;;24.80;55.90;;;;;;5052335;28;20032;-55
2022/06/17 11:30:17;;;;;;;59.90;12.18;;;24.90;55.70;;;;;;5053756;28;20118;-57
2022/06/17 11:33:01;;;;;;;17.98;5.25;;;25.10;55.50;;;;;;5053366;28;20171;-57
2022/06/17 11:35:46;;;;;;;21.90;5.68;;;25.30;56.00;;;;;;5052477;28;20082;-51
2022/06/17 11:38:32;;;;;;;43.85;7.35;;;25.40;54.60;;;;;;5053247;28;20106;-54
2022/06/17 11:41:32;;;;;;;32.13;6.07;;;25.40;54.60;;;;;;5052809;28;20044;-52
2022/06/17 11:44:17;;;;;;;25.13;5.15;;;25.30;54.70;;;;;;5052929;28;20051;-51
2022/06/17 11:47:03;;;;;;;5.18;3.15;;;25.40;54.00;;;;;;5052740;28;20028;-51
2022/06/17 11:49:48;;;;;;;10.77;2.80;;;25.20;54.70;;;;;;5053991;28;20559;-57
2022/06/17 11:52:35;;;;;;;14.85;3.55;;;25.40;54.60;;;;;;5056655;28;20104;-54
2022/06/17 11:55:27;;;;;;;8.95;2.53;;;25.30;54.10;;;;;;5054989;28;20055;-54
2022/06/17 11:58:13;;;;;;;9.10;2.75;;;25.00;53.70;;;;;;5053833;28;20028;-54
2022/06/17 12:01:12;;;;;;;6.38;2.50;;;25.00;54.00;;;;;;5052737;28;20116;-52
2022/06/17 12:03:57;;;;;;;8.20;3.20;;;25.30;53.70;;;;;;5037331;28;20079;-57
2022/06/17 12:06:47;;;;;;;32.13;4.22;;;25.60;53.60;;;;;;5036274;28;20032;-56
2022/06/17 12:09:39;;;;;;;4.57;2.40;;;25.70;53.30;;;;;;5051925;28;20036;-54
2022/06/17 12:12:24;;;;;;;32.30;7.03;;;25.70;54.10;;;;;;5051727;28;20551;-52
2022/06/17 12:15:09;;;;;;;33.47;6.40;;;25.60;53.80;;;;;;5049292;28;20060;-55
2022/06/17 12:17:57;;;;;;;36.92;5.65;;;25.50;54.30;;;;;;5051527;28;20064;-54
2022/06/17 12:21:04;;;;;;;25.92;4.50;;;25.30;53.50;;;;;;5050847;28;20539;-54
2022/06/17 12:23:59;;;;;;;23.85;5.63;;;25.40;54.50;;;;;;5051323;28;20032;-50
2022/06/17 12:26:46;;;;;;;22.77;4.05;;;25.40;54.60;;;;;;5051089;28;20036;-57
2022/06/17 12:29:55;;;;;;;36.10;7.03;;;25.40;55.50;;;;;;5051751;28;20100;-54
2022/06/17 12:32:59;;;;;;;46.25;8.07;;;25.60;55.50;;;;;;5028038;28;20096;-51
2022/06/17 12:35:47;;;;;;;18.77;5.20;;;25.70;54.80;;;;;;5046441;28;20087;-51
2022/06/17 12:38:41;;;;;;;13.45;3.38;;;25.70;54.90;;;;;;5051757;28;20118;-51
2022/06/17 12:41:56;;;;;;;9.80;3.20;;;25.70;54.70;;;;;;5039366;28;20032;-52
2022/06/17 12:44:53;;;;;;;;;;;25.60;54.10;;;;;;5043547;28;20306;-53
2022/06/17 12:47:53;;;;;;;7.53;2.95;;;25.90;54.50;;;;;;5056429;28;19966;-55
2022/06/17 12:54:36;;;;;;;11.15;3.67;;;26.00;54.00;;;;;;5052768;28;20083;-54
2022/06/17 12:57:28;;;;;;;4.60;2.63;;;25.90;54.10;;;;;;5051463;28;20027;-54
2022/06/17 13:00:20;;;;;;;10.18;3.45;;;25.80;54.50;;;;;;5053310;28;20633;-54
2022/06/17 13:03:22;;;;;;;9.07;2.92;;;25.90;54.00;;;;;;5054134;28;20044;-56
2022/06/17 13:06:15;;;;;;;7.10;2.83;;;26.00;54.60;;;;;;5051245;28;20159;-55
2022/06/17 13:09:23;;;;;;;6.47;2.60;;;26.20;53.70;;;;;;5051594;28;20035;-51
2022/06/17 13:12:32;;;;;;;5.32;2.83;;;26.00;54.00;;;;;;5051124;28;20051;-52
2022/06/17 13:15:23;;;;;;;5.35;2.50;;;25.90;54.60;;;;;;5051567;28;20083;-52
2022/06/17 13:18:17;;;;;;;4.57;2.35;;;26.10;54.60;;;;;;5051389;28;20032;-56
2022/06/17 13:21:05;;;;;;;5.87;2.67;;;26.30;54.50;;;;;;5036024;28;20075;-55
2022/06/17 13:24:03;;;;;;;11.55;3.22;;;26.70;54.50;;;;;;5051227;28;20076;-52
2022/06/17 13:26:55;;;;;;;8.70;2.90;;;27.00;53.50;;;;;;5049854;28;20028;-54
2022/06/17 13:30:04;;;;;;;7.05;2.30;;;27.10;53.40;;;;;;5050293;28;20028;-55
2022/06/17 13:33:05;;;;;;;5.72;3.15;;;27.00;53.60;;;;;;5050879;28;20108;-55
2022/06/17 13:36:04;;;;;;;7.13;2.67;;;27.10;53.80;;;;;;5038197;28;20016;-52
2022/06/17 13:39:09;;;;;;;3.45;2.50;;;27.40;52.90;;;;;;5051785;28;20035;-52
2022/06/17 13:42:02;;;;;;;4.20;2.30;;;27.50;52.90;;;;;;5050610;28;20075;-52
2022/06/17 13:45:12;;;;;;;6.75;2.47;;;27.40;52.80;;;;;;5050874;28;20059;-52
2022/06/17 13:48:03;;;;;;;5.00;2.47;;;27.60;52.20;;;;;;5050983;28;20055;-57
2022/06/17 13:51:08;;;;;;;12.98;2.90;;;27.70;52.20;;;;;;5047342;28;20487;-55
2022/06/17 13:53:52;;;;;;;4.53;2.38;;;28.00;52.00;;;;;;5050431;28;20032;-56
2022/06/17 13:56:36;;;;;;;;;;;28.30;52.00;;;;;;5050930;28;20078;-56
2022/06/17 13:59:39;;;;;;;8.35;2.55;;;28.30;52.20;;;;;;5035638;28;20009;-56
2022/06/17 14:02:27;;;;;;;10.45;3.20;;;28.50;51.60;;;;;;5051154;28;20039;-55
2022/06/17 14:05:24;;;;;;;3.85;2.50;;;28.30;51.20;;;;;;5030869;28;20083;-53
2022/06/17 14:08:14;;;;;;;3.83;2.30;;;28.40;50.50;;;;;;5034790;28;20036;-52
2022/06/17 14:11:31;;;;;;;5.25;3.03;;;28.40;51.30;;;;;;5050862;28;20152;-50
2022/06/17 14:14:17;;;;;;;5.85;2.55;;;28.90;50.90;;;;;;5050509;28;20075;-51
2022/06/17 14:17:13;;;;;;;5.15;2.30;;;29.50;52.10;;;;;;5054050;28;20083;-53
2022/06/17 14:20:34;;;;;;;7.65;3.28;;;29.50;49.90;;;;;;5055171;28;20101;-50
2022/06/17 14:23:21;;;;;;;16.83;4.65;;;29.70;50.30;;;;;;5042110;28;20104;-54
2022/06/17 14:26:07;;;;;;;7.25;3.10;;;29.70;50.20;;;;;;5054035;28;20032;-51
2022/06/17 14:28:51;;;;;;;2.88;2.30;;;29.50;49.70;;;;;;5053731;28;20515;-49
2022/06/17 14:31:37;;;;;;;4.65;2.70;;;29.40;49.90;;;;;;5054102;28;20070;-54
2022/06/17 14:34:45;;;;;;;4.47;2.13;;;29.50;49.80;;;;;;5054067;28;20043;-51
2022/06/17 14:37:34;;;;;;;2.58;2.35;;;29.30;49.50;;;;;;5035913;28;20041;-49
2022/06/17 14:43:52;;;;;;;5.68;2.30;;;28.90;49.60;;;;;;5054283;28;20121;-51
2022/06/17 14:47:14;;;;;;;5.32;2.72;;;28.70;50.30;;;;;;5053617;28;20036;-57
2022/06/17 14:50:52;;;;;;;3.90;2.40;;;28.60;50.60;;;;;;5053579;28;20094;-57
2022/06/17 14:53:49;;;;;;;5.30;2.80;;;28.50;51.40;;;;;;5027715;28;20083;-51
2022/06/17 14:56:39;;;;;;;3.88;2.80;;;28.70;51.60;;;;;;5054470;28;20480;-54
2022/06/17 14:59:35;;;;;;;5.38;2.50;;;28.70;51.10;;;;;;5054040;28;20028;-57
2022/06/17 15:02:27;;;;;;;3.42;2.38;;;28.80;51.40;;;;;;5053491;28;20610;-57
2022/06/17 15:05:43;;;;;;;5.18;2.60;;;28.80;51.10;;;;;;5053415;28;20040;-56
2022/06/17 15:08:44;;;;;;;3.75;2.70;;;28.60;50.90;;;;;;5052036;28;20522;-56